createdAt,value
2023-01-01T00:01:40.786Z,99515.36
2023-01-01T00:06:47.094Z,99508.29
2023-01-01T00:11:49.854Z,99509.64
2023-01-01T00:16:55.493Z,99518.48
2023-01-01T00:22:02.063Z,99520.08
2023-01-01T00:27:08.490Z,99529.98
2023-01-01T00:32:15.430Z,99529.20
2023-01-01T00:37:21.923Z,99542.55
2023-01-01T00:42:24.705Z,99545.41
2023-01-01T00:47:27.446Z,99548.83
2023-01-01T00:52:30.167Z,99535.88
2023-01-01T00:57:32.991Z,99538.51
2023-01-01T01:02:36.267Z,99552.45
2023-01-01T01:07:40.021Z,99560.63
2023-01-01T01:12:42.977Z,99552.86
2023-01-01T01:17:45.868Z,99538.84
2023-01-01T01:22:48.657Z,99542.48
2023-01-01T01:27:51.374Z,99540.98
2023-01-01T01:32:54.214Z,99551.17
2023-01-01T01:37:56.987Z,99553.92
2023-01-01T01:42:59.698Z,99560.48
2023-01-01T01:48:02.651Z,99546.46
2023-01-01T01:53:11.040Z,99555.58
2023-01-01T01:58:16.170Z,99558.29
2023-01-01T02:03:30.005Z,99558.09
2023-01-01T02:08:34.089Z,99561.07
2023-01-01T02:13:37.379Z,99566.67
2023-01-01T02:18:49.114Z,99567.37
2023-01-01T02:24:10.425Z,99567.36
2023-01-01T02:29:40.479Z,99561.80
2023-01-01T02:35:32.454Z,99567.23
2023-01-01T02:40:43.050Z,99570.90
2023-01-01T02:45:46.039Z,99574.06
2023-01-01T02:50:48.866Z,99570.33
2023-01-01T02:55:54.310Z,99567.95
2023-01-01T03:01:11.103Z,99565.04
2023-01-01T03:06:32.220Z,99551.16
2023-01-01T03:11:51.282Z,99556.70
2023-01-01T03:17:08.766Z,99566.70
2023-01-01T03:22:17.307Z,99553.56
2023-01-01T03:27:35.225Z,99559.83
2023-01-01T03:33:01.390Z,99559.27
2023-01-01T03:38:08.962Z,99570.81
2023-01-01T03:43:28.013Z,99569.69
2023-01-01T03:48:50.773Z,99572.35
2023-01-01T03:53:58.008Z,99574.08
2023-01-01T03:59:26.105Z,99578.69
2023-01-01T04:04:29.110Z,99576.67
2023-01-01T04:09:36.087Z,99581.04
2023-01-01T04:14:42.742Z,99585.45
2023-01-01T04:19:50.054Z,99590.97
2023-01-01T04:24:56.042Z,99595.20
2023-01-01T04:29:58.811Z,99605.63
2023-01-01T04:35:01.580Z,99609.20
2023-01-01T04:40:05.719Z,99612.77
2023-01-01T04:45:09.232Z,99618.95
2023-01-01T04:50:12.016Z,99616.23
2023-01-01T04:55:14.823Z,99620.86
2023-01-01T05:00:17.800Z,99623.06
2023-01-01T05:05:20.779Z,99622.44
2023-01-01T05:10:23.528Z,99629.61
2023-01-01T05:15:26.241Z,99631.99
2023-01-01T05:20:28.952Z,99635.69
2023-01-01T05:25:31.689Z,99640.30
2023-01-01T05:30:34.419Z,99648.95
2023-01-01T05:35:37.151Z,99657.84
2023-01-01T05:40:40.308Z,99656.55
2023-01-01T05:45:44.285Z,99657.23
2023-01-01T05:50:47.060Z,99668.21
2023-01-01T05:55:54.064Z,99673.84
2023-01-01T06:00:57.221Z,99674.02
2023-01-01T06:06:04.660Z,99668.92
2023-01-01T06:11:11.438Z,99675.38
2023-01-01T06:16:14.262Z,99682.67
2023-01-01T06:21:19.748Z,99687.64
2023-01-01T06:26:31.537Z,99693.21
2023-01-01T06:31:40.365Z,99697.98
2023-01-01T06:36:43.547Z,99703.29
2023-01-01T06:41:46.298Z,99700.38
2023-01-01T06:46:49.050Z,99707.17
2023-01-01T06:51:51.792Z,99714.16
2023-01-01T06:56:54.511Z,99719.63
2023-01-01T07:01:57.314Z,99709.13
2023-01-01T07:07:01.466Z,99708.70
2023-01-01T07:12:04.423Z,99716.29
2023-01-01T07:17:07.149Z,99725.83
2023-01-01T07:22:11.005Z,99730.81
2023-01-01T07:27:13.757Z,99736.56
2023-01-01T07:32:16.475Z,99743.38
2023-01-01T07:37:20.636Z,99750.58
2023-01-01T07:42:23.411Z,99757.61
2023-01-01T07:47:26.561Z,99760.25
2023-01-01T07:52:29.274Z,99766.05
2023-01-01T07:57:32.011Z,99777.37
2023-01-01T08:02:34.976Z,99776.67
2023-01-01T08:07:38.485Z,99783.46
2023-01-01T08:12:41.792Z,99791.98
2023-01-01T08:17:47.151Z,99784.05
2023-01-01T08:22:50.227Z,99787.86
2023-01-01T08:27:53.000Z,99796.42
2023-01-01T08:32:55.786Z,99797.12
2023-01-01T08:37:58.750Z,99803.47
2023-01-01T08:43:01.496Z,99805.46
2023-01-01T08:48:04.547Z,99805.48
2023-01-01T08:53:07.337Z,99807.02
2023-01-01T08:58:10.060Z,99811.93
2023-01-01T09:03:12.903Z,99813.36
2023-01-01T09:08:16.557Z,99823.41
2023-01-01T09:13:22.126Z,99821.36
2023-01-01T09:18:24.878Z,99824.73
2023-01-01T09:23:27.677Z,99835.65
2023-01-01T09:28:31.041Z,99837.98
2023-01-01T09:33:34.612Z,99833.70
2023-01-01T09:38:37.365Z,99831.76
2023-01-01T09:44:18.772Z,99832.38
2023-01-01T09:49:35.591Z,99833.33
2023-01-01T09:54:43.828Z,99823.20
2023-01-01T09:59:46.762Z,99836.05
2023-01-01T10:05:26.847Z,99834.80
2023-01-01T10:10:40.949Z,99846.28
2023-01-01T10:15:57.117Z,99843.99
2023-01-01T10:21:12.623Z,99844.05
2023-01-01T10:26:18.762Z,99843.09
2023-01-01T10:31:34.698Z,99837.48
2023-01-01T10:36:37.956Z,99834.64
2023-01-01T10:41:40.693Z,99842.08
2023-01-01T10:46:48.826Z,99853.34
2023-01-01T10:51:54.119Z,99852.92
2023-01-01T10:56:56.950Z,99848.20
2023-01-01T11:02:21.781Z,99846.54
2023-01-01T11:07:30.474Z,99853.05
2023-01-01T11:13:04.386Z,99849.45
2023-01-01T11:18:14.986Z,99845.27
2023-01-01T11:23:39.561Z,99843.02
2023-01-01T11:28:42.574Z,99853.35
2023-01-01T11:33:50.949Z,99856.89
2023-01-01T11:39:18.175Z,99846.30
2023-01-01T11:44:40.041Z,99849.96
2023-01-01T11:49:43.139Z,99866.70
2023-01-01T11:54:47.573Z,99866.14
2023-01-01T12:00:01.201Z,99854.74
2023-01-01T12:05:42.546Z,99850.73
2023-01-01T12:10:58.358Z,99869.27
2023-01-01T12:16:27.117Z,99881.88
2023-01-01T12:21:32.762Z,99889.85
2023-01-01T12:26:47.419Z,99891.48
2023-01-01T12:32:24.094Z,99889.85
2023-01-01T12:37:38.715Z,99903.15
2023-01-01T12:43:01.114Z,99913.01
2023-01-01T12:48:43.315Z,99923.77
2023-01-01T12:54:04.316Z,99921.59
2023-01-01T12:59:32.261Z,99924.17
2023-01-01T13:04:36.690Z,99916.06
2023-01-01T13:09:45.304Z,99917.60
2023-01-01T13:14:52.699Z,99922.60
2023-01-01T13:20:15.098Z,99907.39
2023-01-01T13:25:19.238Z,99918.73
2023-01-01T13:30:38.268Z,99931.27
2023-01-01T13:35:41.583Z,99948.16
2023-01-01T13:40:51.491Z,99961.32
2023-01-01T13:46:13.851Z,99956.92
2023-01-01T13:52:05.246Z,99950.94
2023-01-01T13:57:20.631Z,99966.23
2023-01-01T14:02:31.324Z,99981.36
2023-01-01T14:07:51.260Z,99982.31
2023-01-01T14:13:16.466Z,99996.70
2023-01-01T14:18:22.149Z,100002.36
2023-01-01T14:23:41.600Z,100012.77
2023-01-01T14:28:45.039Z,100022.39
2023-01-01T14:33:48.571Z,100015.81
2023-01-01T14:38:56.862Z,100004.08
2023-01-01T14:44:24.727Z,100015.61
2023-01-01T14:49:45.481Z,100014.16
2023-01-01T14:54:48.673Z,100010.18
2023-01-01T14:59:56.626Z,100021.53
2023-01-01T15:05:27.687Z,100044.30
2023-01-01T15:10:36.384Z,100066.45
2023-01-01T15:15:45.300Z,100079.89
2023-01-01T15:20:54.057Z,100093.68
2023-01-01T15:25:56.894Z,100107.55
2023-01-01T15:31:00.020Z,100113.91
2023-01-01T15:36:04.064Z,100115.31
2023-01-01T15:41:40.731Z,100121.84
2023-01-01T15:46:49.216Z,100134.38
2023-01-01T15:51:55.514Z,100144.98
2023-01-01T15:56:58.414Z,100161.44
2023-01-01T16:02:13.582Z,100161.71
2023-01-01T16:07:23.505Z,100179.42
2023-01-01T16:12:26.403Z,100184.55
2023-01-01T16:17:29.209Z,100181.34
2023-01-01T16:22:36.569Z,100184.94
2023-01-01T16:27:39.855Z,100183.14
2023-01-01T16:32:42.694Z,100189.28
2023-01-01T16:37:45.479Z,100202.96
2023-01-01T16:42:48.278Z,100210.56
2023-01-01T16:47:51.316Z,100216.14
2023-01-01T16:52:54.109Z,100221.02
2023-01-01T16:58:21.209Z,100225.89
2023-01-01T17:03:19.698Z,100225.29
2023-01-01T17:08:23.001Z,100234.86
2023-01-01T17:13:25.811Z,100247.70
2023-01-01T17:18:55.135Z,100252.57
2023-01-01T17:23:51.793Z,100259.02
2023-01-01T17:29:00.288Z,100264.91
2023-01-01T17:34:04.229Z,100264.35
2023-01-01T17:39:07.363Z,100273.06
2023-01-01T17:44:11.707Z,100271.87
2023-01-01T17:49:14.639Z,100282.98
2023-01-01T17:54:17.473Z,100300.50
2023-01-01T17:59:20.291Z,100308.79
2023-01-01T18:04:23.065Z,100310.83
2023-01-01T18:09:25.925Z,100315.92
2023-01-01T18:14:28.763Z,100328.04
2023-01-01T18:19:32.467Z,100347.84
2023-01-01T18:24:35.832Z,100355.00
2023-01-01T18:29:38.621Z,100356.34
2023-01-01T18:34:41.405Z,100357.10
2023-01-01T18:39:44.259Z,100371.85
2023-01-01T18:44:47.004Z,100376.86
2023-01-01T18:50:02.182Z,100382.33
2023-01-01T18:55:04.933Z,100377.38
2023-01-01T19:00:22.921Z,100381.48
2023-01-01T19:05:27.566Z,100380.89
2023-01-01T19:10:44.540Z,100386.91
2023-01-01T19:15:53.314Z,100384.89
2023-01-01T19:21:21.560Z,100381.47
2023-01-01T19:26:25.739Z,100379.42
2023-01-01T19:31:28.899Z,100388.98
2023-01-01T19:36:31.780Z,100403.11
2023-01-01T19:41:36.332Z,100403.91
2023-01-01T19:46:39.359Z,100412.20
2023-01-01T19:51:42.345Z,100413.45
2023-01-01T19:56:46.673Z,100417.90
2023-01-01T20:02:03.534Z,100422.17
2023-01-01T20:07:12.307Z,100428.88
2023-01-01T20:12:15.035Z,100442.67
2023-01-01T20:17:18.461Z,100456.46
2023-01-01T20:22:22.154Z,100455.55
2023-01-01T20:27:27.257Z,100454.70
2023-01-01T20:32:30.119Z,100457.13
2023-01-01T20:37:39.101Z,100459.05
2023-01-01T20:42:43.693Z,100456.92
2023-01-01T20:47:46.532Z,100461.23
2023-01-01T20:52:49.338Z,100467.25
2023-01-01T20:57:52.225Z,100468.90
2023-01-01T21:02:55.243Z,100477.56
2023-01-01T21:07:59.489Z,100496.36
2023-01-01T21:13:02.438Z,100494.05
2023-01-01T21:18:05.807Z,100500.70
2023-01-01T21:23:29.348Z,100502.14
2023-01-01T21:28:33.829Z,100499.05
2023-01-01T21:33:36.702Z,100508.29
2023-01-01T21:38:39.825Z,100518.80
2023-01-01T21:43:45.640Z,100525.70
2023-01-01T21:49:02.953Z,100534.45
2023-01-01T21:54:14.922Z,100543.59
2023-01-01T21:59:35.567Z,100541.50
2023-01-01T22:04:45.671Z,100535.23
2023-01-01T22:09:57.559Z,100528.76
2023-01-01T22:15:28.674Z,100533.39
2023-01-01T22:20:34.805Z,100534.52
2023-01-01T22:25:38.005Z,100532.33
2023-01-01T22:30:42.750Z,100523.06
2023-01-01T22:35:45.903Z,100523.69
2023-01-01T22:40:50.669Z,100530.69
2023-01-01T22:45:54.104Z,100526.41
2023-01-01T22:51:02.191Z,100527.58
2023-01-01T22:56:05.328Z,100530.08
2023-01-01T23:01:08.100Z,100525.89
2023-01-01T23:06:11.088Z,100530.89
2023-01-01T23:11:13.897Z,100531.73
2023-01-01T23:16:16.656Z,100528.88
2023-01-01T23:21:26.762Z,100535.39
2023-01-01T23:26:30.931Z,100539.46
2023-01-01T23:31:34.905Z,100523.21
2023-01-01T23:36:39.511Z,100519.71
2023-01-01T23:41:42.357Z,100520.95
2023-01-01T23:46:45.628Z,100521.28
2023-01-01T23:51:48.498Z,100526.70
2023-01-01T23:56:51.392Z,100525.00
